createdAt,value
2022-11-15T00:01:48.574Z,71.03
2022-11-15T00:04:34.436Z,73.53
2022-11-15T00:07:48.115Z,75.30
2022-11-15T00:10:26.143Z,73.57
2022-11-15T00:13:13.866Z,72.33
2022-11-15T00:16:01.872Z,61.57
2022-11-15T00:18:50.549Z,58.67
2022-11-15T00:21:36.822Z,56.15
2022-11-15T00:24:22.505Z,64.00
2022-11-15T00:27:08.452Z,61.93
2022-11-15T00:29:54.474Z,62.93
2022-11-15T00:32:40.452Z,63.60
2022-11-15T00:35:26.166Z,56.87
2022-11-15T00:38:12.170Z,57.83
2022-11-15T00:40:58.134Z,48.07
2022-11-15T00:43:44.954Z,52.37
2022-11-15T00:46:30.907Z,49.70
2022-11-15T00:49:16.740Z,52.23
2022-11-15T00:52:02.666Z,52.13
2022-11-15T00:54:48.741Z,49.27
2022-11-15T00:57:34.536Z,58.20
2022-11-15T01:00:20.281Z,56.43
2022-11-15T01:03:06.060Z,55.00
2022-11-15T01:05:51.735Z,55.17
2022-11-15T01:08:37.568Z,56.97
2022-11-15T01:11:23.313Z,51.10
2022-11-15T01:14:09.175Z,54.47
2022-11-15T01:16:55.443Z,62.13
2022-11-15T01:19:41.133Z,69.77
2022-11-15T01:22:26.680Z,61.60
2022-11-15T01:25:12.354Z,61.00
2022-11-15T01:27:58.197Z,57.60
2022-11-15T01:30:44.149Z,62.40
2022-11-15T01:33:30.688Z,58.70
2022-11-15T01:36:23.043Z,54.67
2022-11-15T01:39:09.307Z,51.10
2022-11-15T01:41:55.341Z,59.23
2022-11-15T01:44:48.685Z,60.00
2022-11-15T01:47:43.163Z,58.13
2022-11-15T01:50:33.427Z,45.83
2022-11-15T01:53:22.711Z,46.20
2022-11-15T01:56:13.148Z,40.78
2022-11-15T01:59:03.785Z,38.70
2022-11-15T02:01:49.356Z,45.83
2022-11-15T02:04:47.879Z,43.77
2022-11-15T02:07:36.178Z,48.42
2022-11-15T02:10:24.715Z,50.67
2022-11-15T02:13:10.292Z,60.07
2022-11-15T02:16:12.023Z,91.67
2022-11-15T02:19:13.862Z,63.30
2022-11-15T02:22:21.544Z,47.50
2022-11-15T02:25:16.146Z,52.57
2022-11-15T02:28:18.547Z,50.03
2022-11-15T02:31:13.439Z,62.57
2022-11-15T02:34:02.158Z,56.30
2022-11-15T02:37:02.393Z,48.47
2022-11-15T02:39:51.659Z,46.53
2022-11-15T02:43:06.973Z,40.90
2022-11-15T02:46:03.199Z,50.40
2022-11-15T02:48:49.337Z,42.13
2022-11-15T02:51:36.294Z,46.20
2022-11-15T02:54:23.947Z,56.03
2022-11-15T02:57:20.214Z,51.53
2022-11-15T03:00:06.297Z,49.10
2022-11-15T03:03:10.709Z,44.70
2022-11-15T03:06:34.106Z,41.67
2022-11-15T03:09:32.437Z,47.83
2022-11-15T03:12:47.479Z,52.17
2022-11-15T03:15:43.319Z,40.93
2022-11-15T03:18:43.061Z,51.10
2022-11-15T03:21:31.247Z,46.83
2022-11-15T03:24:25.683Z,48.80
2022-11-15T03:27:16.718Z,40.80
2022-11-15T03:30:06.478Z,41.07
2022-11-15T03:32:57.278Z,43.60
2022-11-15T03:35:46.717Z,44.57
2022-11-15T03:38:35.010Z,43.38
2022-11-15T03:41:30.290Z,48.60
2022-11-15T03:44:52.424Z,38.57
2022-11-15T03:47:45.096Z,35.83
2022-11-15T03:50:30.977Z,36.27
2022-11-15T03:53:19.533Z,35.97
2022-11-15T03:56:06.459Z,41.53
2022-11-15T03:58:52.071Z,38.83
2022-11-15T04:01:38.103Z,36.13
2022-11-15T04:04:23.949Z,38.57
2022-11-15T04:07:09.918Z,34.77
2022-11-15T04:10:05.368Z,40.70
2022-11-15T04:12:56.605Z,29.43
2022-11-15T04:15:42.790Z,29.77
2022-11-15T04:18:28.824Z,31.57
2022-11-15T04:21:33.309Z,28.10
2022-11-15T04:24:19.752Z,20.67
2022-11-15T04:27:06.151Z,22.13
2022-11-15T04:29:52.093Z,23.20
2022-11-15T04:32:38.060Z,23.13
2022-11-15T04:35:24.256Z,24.07
2022-11-15T04:38:11.859Z,29.73
2022-11-15T04:40:58.308Z,34.03
2022-11-15T04:43:44.400Z,36.23
2022-11-15T04:46:31.090Z,35.53
2022-11-15T04:49:17.044Z,30.43
2022-11-15T04:52:03.894Z,32.57
2022-11-15T04:54:49.703Z,39.37
2022-11-15T04:57:35.825Z,28.53
2022-11-15T05:00:21.587Z,35.07
2022-11-15T05:03:28.471Z,29.93
2022-11-15T05:10:06.168Z,27.93
2022-11-15T05:12:52.277Z,28.73
2022-11-15T05:15:38.308Z,28.03
2022-11-15T05:18:26.247Z,30.43
2022-11-15T05:21:15.048Z,33.27
2022-11-15T05:24:01.480Z,32.42
2022-11-15T05:26:47.567Z,32.90
2022-11-15T05:29:33.183Z,40.60
2022-11-15T05:32:19.349Z,32.47
2022-11-15T05:35:10.287Z,33.40
2022-11-15T05:37:56.240Z,32.27
2022-11-15T05:40:42.188Z,31.10
2022-11-15T05:43:29.454Z,29.80
2022-11-15T05:46:15.642Z,31.57
2022-11-15T05:49:02.597Z,29.47
2022-11-15T05:51:49.738Z,32.97
2022-11-15T05:54:37.004Z,29.13
2022-11-15T05:57:22.926Z,31.80
2022-11-15T06:00:10.436Z,29.33
2022-11-15T06:02:56.224Z,29.87
2022-11-15T06:05:42.312Z,26.73
2022-11-15T06:19:26.014Z,32.90
2022-11-15T06:22:12.282Z,29.87
2022-11-15T06:25:04.085Z,25.17
2022-11-15T06:27:56.198Z,30.90
2022-11-15T06:30:42.721Z,22.20
2022-11-15T06:33:29.584Z,22.30
2022-11-15T06:36:18.002Z,25.63
2022-11-15T06:39:05.517Z,22.83
2022-11-15T06:41:51.373Z,22.23
2022-11-15T06:44:37.647Z,22.67
2022-11-15T06:47:23.459Z,25.57
2022-11-15T06:50:09.866Z,24.07
2022-11-15T06:52:55.815Z,24.13
2022-11-15T06:55:41.662Z,24.23
2022-11-15T06:58:27.524Z,23.70
2022-11-15T07:01:13.793Z,22.03
2022-11-15T07:04:00.819Z,19.80
2022-11-15T07:09:36.341Z,23.20
2022-11-15T07:12:22.056Z,22.20
2022-11-15T07:15:08.557Z,21.30
2022-11-15T07:17:54.615Z,21.37
2022-11-15T07:20:41.621Z,24.37
2022-11-15T07:23:27.203Z,25.10
2022-11-15T07:26:13.485Z,20.10
2022-11-15T07:28:59.799Z,21.90
2022-11-15T07:31:45.846Z,23.00
2022-11-15T07:34:31.835Z,23.27
2022-11-15T07:37:18.483Z,23.73
2022-11-15T07:40:04.595Z,20.90
2022-11-15T07:42:57.386Z,21.87
2022-11-15T07:45:45.295Z,20.70
2022-11-15T07:48:43.227Z,34.08
2022-11-15T07:51:29.982Z,25.40
2022-11-15T07:54:16.998Z,21.27
2022-11-15T07:57:07.327Z,19.37
2022-11-15T07:59:53.659Z,21.07
2022-11-15T08:02:39.769Z,19.60
2022-11-15T08:05:26.165Z,20.13
2022-11-15T08:08:12.810Z,19.30
2022-11-15T08:10:59.838Z,19.87
2022-11-15T08:13:46.036Z,18.67
2022-11-15T08:16:32.124Z,19.17
2022-11-15T08:19:19.014Z,17.97
2022-11-15T08:22:05.009Z,16.57
2022-11-15T08:24:50.900Z,18.60
2022-11-15T08:27:41.044Z,21.17
2022-11-15T08:30:26.743Z,19.23
2022-11-15T08:33:14.885Z,18.27
2022-11-15T08:36:02.057Z,21.57
2022-11-15T08:38:47.977Z,19.57
2022-11-15T08:41:37.966Z,19.50
2022-11-15T08:44:25.138Z,19.47
2022-11-15T08:47:12.712Z,16.90
2022-11-15T08:49:58.840Z,21.03
2022-11-15T08:52:45.541Z,23.10
2022-11-15T08:55:31.602Z,29.30
2022-11-15T08:58:17.827Z,24.10
2022-11-15T09:01:05.780Z,26.40
2022-11-15T09:03:52.427Z,25.20
2022-11-15T09:06:43.092Z,29.50
2022-11-15T09:09:29.703Z,27.97
2022-11-15T09:12:15.994Z,24.47
2022-11-15T09:15:01.835Z,25.93
2022-11-15T09:17:47.455Z,22.10
2022-11-15T09:20:33.129Z,21.23
2022-11-15T09:23:19.506Z,19.83
2022-11-15T09:26:06.610Z,18.23
2022-11-15T09:31:56.558Z,20.20
2022-11-15T09:34:42.371Z,18.87
2022-11-15T09:37:29.211Z,15.90
2022-11-15T09:40:18.534Z,16.07
2022-11-15T09:43:42.373Z,18.00
2022-11-15T09:46:52.304Z,15.37
2022-11-15T09:49:22.823Z,15.80
2022-11-15T09:57:36.431Z,12.10
2022-11-15T10:03:24.938Z,11.68
2022-11-15T10:05:58.281Z,14.93
2022-11-15T10:08:39.009Z,14.00
2022-11-15T10:11:39.255Z,21.77
2022-11-15T10:14:19.981Z,15.03
2022-11-15T10:17:20.011Z,14.23
2022-11-15T10:20:05.249Z,14.68
2022-11-15T10:22:41.641Z,14.43
2022-11-15T10:25:09.767Z,20.30
2022-11-15T10:27:37.557Z,13.07
2022-11-15T10:30:11.447Z,17.53
2022-11-15T10:32:40.757Z,17.83
2022-11-15T10:35:23.874Z,13.82
2022-11-15T10:37:51.636Z,36.30
2022-11-15T10:40:24.974Z,14.63
2022-11-15T10:43:06.962Z,10.98
2022-11-15T10:45:36.162Z,15.55
2022-11-15T10:48:13.385Z,12.43
2022-11-15T10:50:43.517Z,16.70
2022-11-15T10:53:22.581Z,14.23
2022-11-15T10:55:54.204Z,16.90
2022-11-15T10:58:40.570Z,16.67
2022-11-15T11:01:24.229Z,17.65
2022-11-15T11:04:07.402Z,24.30
2022-11-15T11:06:53.741Z,19.67
2022-11-15T11:09:43.686Z,17.70
2022-11-15T11:12:13.756Z,19.75
2022-11-15T11:14:41.981Z,18.40
2022-11-15T11:17:32.726Z,18.90
2022-11-15T11:20:26.637Z,20.92
2022-11-15T11:23:19.160Z,18.90
2022-11-15T11:26:25.615Z,21.15
2022-11-15T11:29:21.134Z,18.70
2022-11-15T11:32:02.696Z,19.77
2022-11-15T11:34:49.610Z,27.30
2022-11-15T11:37:45.762Z,22.20
2022-11-15T11:40:31.792Z,23.60
2022-11-15T11:43:27.992Z,30.33
2022-11-15T11:46:15.385Z,21.55
2022-11-15T11:48:47.070Z,42.60
2022-11-15T11:51:32.356Z,24.25
2022-11-15T11:54:07.607Z,21.20
2022-11-15T11:56:38.506Z,24.85
2022-11-15T11:59:12.331Z,22.25
2022-11-15T12:01:44.996Z,21.23
2022-11-15T12:04:20.158Z,20.73
2022-11-15T12:06:56.818Z,19.73
2022-11-15T12:09:32.122Z,21.52
2022-11-15T12:12:26.239Z,18.23
2022-11-15T12:14:59.025Z,19.33
2022-11-15T12:17:33.172Z,24.23
2022-11-15T12:20:10.451Z,20.95
2022-11-15T12:22:45.091Z,22.45
2022-11-15T12:25:24.049Z,25.55
2022-11-15T12:28:03.576Z,21.20
2022-11-15T12:31:02.122Z,25.00
2022-11-15T12:33:38.558Z,26.30
2022-11-15T12:36:11.545Z,23.75
2022-11-15T12:38:57.875Z,31.27
2022-11-15T12:43:56.991Z,28.15
2022-11-15T12:46:30.319Z,23.10
2022-11-15T12:49:04.302Z,35.60
2022-11-15T12:51:44.018Z,32.15
2022-11-15T12:54:24.068Z,31.62
2022-11-15T12:57:03.919Z,37.83
2022-11-15T12:59:56.483Z,31.83
2022-11-15T13:02:30.563Z,24.95
2022-11-15T13:05:16.929Z,22.27
2022-11-15T13:07:44.340Z,24.77
2022-11-15T13:10:14.921Z,29.77
2022-11-15T13:12:45.321Z,24.63
2022-11-15T13:15:12.992Z,26.40
2022-11-15T13:17:56.815Z,32.10
2022-11-15T13:20:31.919Z,30.17
2022-11-15T13:23:13.462Z,30.50
2022-11-15T13:26:10.083Z,23.83
2022-11-15T13:28:46.084Z,24.25
2022-11-15T13:31:42.453Z,24.98
2022-11-15T13:37:21.812Z,34.25
2022-11-15T13:39:50.581Z,28.45
2022-11-15T13:42:20.891Z,27.75
2022-11-15T13:44:59.663Z,29.33
2022-11-15T13:47:28.848Z,30.77
2022-11-15T13:50:02.362Z,25.50
2022-11-15T13:52:35.091Z,29.27
2022-11-15T13:55:14.598Z,33.50
2022-11-15T13:57:46.482Z,40.60
2022-11-15T14:00:38.221Z,38.15
2022-11-15T14:03:32.934Z,32.33
2022-11-15T14:30:04.033Z,42.03
2022-11-15T14:32:47.678Z,47.42
2022-11-15T14:35:22.868Z,119.50
2022-11-15T14:37:51.325Z,48.47
2022-11-15T14:40:21.381Z,45.77
2022-11-15T14:42:50.353Z,46.07
2022-11-15T14:45:21.184Z,46.27
2022-11-15T14:47:49.312Z,50.63
2022-11-15T14:50:21.098Z,49.47
2022-11-15T14:52:49.885Z,84.47
2022-11-15T14:55:24.959Z,60.55
2022-11-15T14:57:53.659Z,53.43
2022-11-15T15:00:21.937Z,46.55
2022-11-15T15:02:51.989Z,48.35
2022-11-15T15:05:37.728Z,52.97
2022-11-15T15:08:06.579Z,52.00
2022-11-15T15:10:44.298Z,60.93
2022-11-15T15:13:23.362Z,60.47
2022-11-15T15:15:52.773Z,49.03
2022-11-15T15:18:21.127Z,45.28
2022-11-15T15:21:08.572Z,46.58
2022-11-15T15:23:37.293Z,42.00
2022-11-15T15:26:05.172Z,42.08
2022-11-15T15:28:34.724Z,52.67
2022-11-15T15:31:03.766Z,55.93
2022-11-15T15:33:31.208Z,42.67
2022-11-15T15:35:59.527Z,49.83
2022-11-15T15:38:27.770Z,36.72
2022-11-15T15:40:58.031Z,40.03
2022-11-15T15:43:25.396Z,47.17
2022-11-15T15:45:53.068Z,75.37
2022-11-15T15:48:20.814Z,54.27
2022-11-15T15:50:50.774Z,48.22
2022-11-15T15:53:19.294Z,49.13
2022-11-15T15:55:46.714Z,48.33
2022-11-15T15:58:14.317Z,50.23
2022-11-15T16:00:43.416Z,46.17
2022-11-15T16:03:11.421Z,49.38
2022-11-15T16:05:39.344Z,47.93
2022-11-15T16:08:06.809Z,54.37
2022-11-15T16:10:35.962Z,48.77
2022-11-15T16:15:32.824Z,47.70
2022-11-15T16:18:02.317Z,57.83
2022-11-15T16:20:34.847Z,61.00
2022-11-15T16:23:09.160Z,49.37
2022-11-15T16:25:46.111Z,62.10
2022-11-15T16:28:25.254Z,60.23
2022-11-15T16:31:06.555Z,52.65
2022-11-15T16:33:35.224Z,50.87
2022-11-15T16:36:03.894Z,54.23
2022-11-15T16:38:32.289Z,50.70
2022-11-15T16:41:00.913Z,61.75
2022-11-15T16:43:28.285Z,54.33
2022-11-15T16:45:55.657Z,51.43
2022-11-15T16:48:25.948Z,47.90
2022-11-15T16:50:58.346Z,40.37
2022-11-15T16:53:28.138Z,34.10
2022-11-15T16:55:58.216Z,41.87
2022-11-15T16:58:26.051Z,77.37
2022-11-15T17:00:54.939Z,121.63
2022-11-15T17:03:23.791Z,106.25
2022-11-15T17:05:52.089Z,104.78
2022-11-15T17:08:22.145Z,108.53
2022-11-15T17:10:49.617Z,91.27
2022-11-15T17:13:17.424Z,78.73
2022-11-15T17:15:44.789Z,71.40
2022-11-15T17:18:15.891Z,79.20
2022-11-15T17:20:43.633Z,102.37
2022-11-15T17:23:15.116Z,90.87
2022-11-15T17:25:42.780Z,67.63
2022-11-15T17:28:10.807Z,69.47
2022-11-15T17:30:42.010Z,54.70
2022-11-15T17:33:09.390Z,43.43
2022-11-15T17:35:37.082Z,32.30
2022-11-15T17:38:04.327Z,43.50
2022-11-15T17:40:31.971Z,123.23
2022-11-15T17:42:59.632Z,145.20
2022-11-15T17:45:27.112Z,123.77
2022-11-15T17:47:54.537Z,131.03
2022-11-15T17:50:22.366Z,105.83
2022-11-15T17:52:50.556Z,85.63
2022-11-15T17:55:18.635Z,75.37
2022-11-15T17:57:46.522Z,68.43
2022-11-15T18:00:14.545Z,72.73
2022-11-15T18:02:42.728Z,63.70
2022-11-15T18:05:10.325Z,76.40
2022-11-15T18:07:39.098Z,93.10
2022-11-15T18:10:07.344Z,144.33
2022-11-15T18:12:34.598Z,150.60
2022-11-15T18:15:02.097Z,119.17
2022-11-15T18:17:29.738Z,114.93
2022-11-15T18:19:57.044Z,116.90
2022-11-15T18:22:25.186Z,113.30
2022-11-15T18:24:52.946Z,89.25
2022-11-15T18:27:20.268Z,79.07
2022-11-15T18:29:47.652Z,85.33
2022-11-15T18:32:17.889Z,94.53
2022-11-15T18:34:45.296Z,103.63
2022-11-15T18:37:12.655Z,84.70
2022-11-15T18:39:40.379Z,95.73
2022-11-15T18:42:07.700Z,140.80
2022-11-15T18:44:34.995Z,195.03
2022-11-15T18:47:02.721Z,162.70
2022-11-15T18:49:30.095Z,149.37
2022-11-15T18:51:57.529Z,143.40
2022-11-15T18:54:30.696Z,156.00
2022-11-15T18:57:12.524Z,144.20
2022-11-15T18:59:40.135Z,161.77
2022-11-15T19:02:13.256Z,136.07
2022-11-15T19:04:41.068Z,169.97
2022-11-15T19:07:08.618Z,140.53
2022-11-15T19:09:36.257Z,114.57
2022-11-15T19:12:04.448Z,150.37
2022-11-15T19:14:32.051Z,124.37
2022-11-15T19:16:59.641Z,107.50
2022-11-15T19:19:30.500Z,174.87
2022-11-15T19:21:58.057Z,174.87
2022-11-15T19:24:27.366Z,139.83
2022-11-15T19:26:55.471Z,136.00
2022-11-15T19:29:22.831Z,137.33
2022-11-15T19:31:50.362Z,126.27
2022-11-15T19:34:18.258Z,111.27
2022-11-15T19:36:46.407Z,177.23
2022-11-15T19:39:15.200Z,181.43
2022-11-15T19:41:44.810Z,164.63
2022-11-15T19:44:13.834Z,141.73
2022-11-15T19:46:41.877Z,145.57
2022-11-15T19:49:11.490Z,151.25
2022-11-15T19:51:42.897Z,125.47
2022-11-15T19:54:11.489Z,101.97
2022-11-15T19:56:40.245Z,97.87
2022-11-15T19:59:09.108Z,120.68
2022-11-15T20:01:39.289Z,108.18
2022-11-15T20:04:08.254Z,104.00
2022-11-15T20:06:41.588Z,109.47
2022-11-15T20:09:13.598Z,180.43
2022-11-15T20:11:41.161Z,156.40
2022-11-15T20:14:10.891Z,148.50
2022-11-15T20:19:05.400Z,144.13
2022-11-15T20:21:33.112Z,126.27
2022-11-15T20:24:00.713Z,117.33
2022-11-15T20:26:28.082Z,103.03
2022-11-15T20:29:01.343Z,84.13
2022-11-15T20:31:29.843Z,101.93
2022-11-15T20:33:57.759Z,135.68
2022-11-15T20:36:25.211Z,134.27
2022-11-15T20:38:57.411Z,121.10
2022-11-15T20:41:25.951Z,132.70
2022-11-15T20:43:53.411Z,124.87
2022-11-15T20:46:21.304Z,97.07
2022-11-15T20:48:48.972Z,86.73
2022-11-15T20:51:18.490Z,127.43
2022-11-15T20:53:47.297Z,128.20
2022-11-15T20:56:19.451Z,169.17
2022-11-15T20:58:48.389Z,203.27
2022-11-15T21:01:17.911Z,216.12
2022-11-15T21:06:12.714Z,168.43
2022-11-15T21:08:59.591Z,130.67
2022-11-15T21:11:45.555Z,129.07
2022-11-15T21:14:13.276Z,138.07
2022-11-15T21:16:40.573Z,101.83
2022-11-15T21:19:08.312Z,162.40
2022-11-15T21:21:37.096Z,176.17
2022-11-15T21:24:06.402Z,159.48
2022-11-15T21:29:02.689Z,124.67
2022-11-15T21:31:30.380Z,106.53
2022-11-15T21:33:57.635Z,101.57
2022-11-15T21:36:25.352Z,94.37
2022-11-15T21:38:53.895Z,71.90
2022-11-15T21:41:21.255Z,102.73
2022-11-15T21:43:48.960Z,104.03
2022-11-15T21:46:16.251Z,81.20
2022-11-15T21:48:43.660Z,68.93
2022-11-15T21:51:12.125Z,54.80
2022-11-15T21:53:39.978Z,46.00
2022-11-15T21:56:07.624Z,46.87
2022-11-15T21:58:36.421Z,96.17
2022-11-15T22:01:23.192Z,96.00
2022-11-15T22:03:51.075Z,84.73
2022-11-15T22:06:18.593Z,64.17
2022-11-15T22:08:46.588Z,63.93
2022-11-15T22:11:15.159Z,59.25
2022-11-15T22:13:43.199Z,50.50
2022-11-15T22:16:11.146Z,57.80
2022-11-15T22:18:39.224Z,51.50
2022-11-15T22:21:12.165Z,61.27
2022-11-15T22:23:40.885Z,82.40
2022-11-15T22:26:11.781Z,91.73
2022-11-15T22:28:39.224Z,97.53
2022-11-15T22:31:07.520Z,88.77
2022-11-15T22:33:36.058Z,97.07
2022-11-15T22:36:05.340Z,73.03
2022-11-15T22:38:33.363Z,59.70
2022-11-15T22:41:01.082Z,53.27
2022-11-15T22:43:28.606Z,94.20
2022-11-15T22:46:00.489Z,102.47
2022-11-15T22:48:34.062Z,116.50
2022-11-15T22:51:03.166Z,104.63
2022-11-15T22:53:30.992Z,71.60
2022-11-15T22:56:00.594Z,82.17
2022-11-15T22:58:31.180Z,79.33
2022-11-15T23:01:01.870Z,83.40
2022-11-15T23:03:31.236Z,84.80
2022-11-15T23:08:31.175Z,83.17
2022-11-15T23:11:22.333Z,75.07
2022-11-15T23:13:52.187Z,80.77
2022-11-15T23:18:52.681Z,99.13
2022-11-15T23:24:15.313Z,78.70
2022-11-15T23:26:43.817Z,76.67
2022-11-15T23:29:13.975Z,78.78
2022-11-15T23:32:02.544Z,87.90
2022-11-15T23:34:31.495Z,65.47
2022-11-15T23:36:59.971Z,77.87
2022-11-15T23:39:28.013Z,80.40
2022-11-15T23:41:55.545Z,76.13
2022-11-15T23:44:23.791Z,67.23
2022-11-15T23:46:51.683Z,66.63
2022-11-15T23:49:19.182Z,62.67
2022-11-15T23:51:47.787Z,63.73
2022-11-15T23:54:15.414Z,63.53
2022-11-15T23:56:42.739Z,67.53
2022-11-15T23:59:10.452Z,70.07
